createdAt,value
2016-06-04T00:00:23.276Z,18.1
2016-06-04T00:01:23.310Z,18.03
2016-06-04T00:02:23.344Z,18.13
2016-06-04T00:03:23.393Z,18.16
2016-06-04T00:04:23.428Z,18.22
2016-06-04T00:05:23.461Z,18.07
2016-06-04T00:06:23.527Z,18.15
2016-06-04T00:07:23.530Z,18.04
2016-06-04T00:08:23.563Z,18.13
2016-06-04T00:09:23.613Z,18.13
2016-06-04T00:10:23.678Z,18.13
2016-06-04T00:11:23.696Z,18.15
2016-06-04T00:12:23.714Z,18
2016-06-04T00:13:23.765Z,18.03
2016-06-04T00:14:23.798Z,17.98
2016-06-04T00:15:23.832Z,17.95
2016-06-04T00:16:23.865Z,17.94
2016-06-04T00:17:23.915Z,17.85
2016-06-04T00:18:23.949Z,17.85
2016-06-04T00:19:23.998Z,17.85
2016-06-04T00:20:24.034Z,17.92
2016-06-04T00:21:24.082Z,17.74
2016-06-04T00:22:24.117Z,17.76
2016-06-04T00:23:24.134Z,17.68
2016-06-04T00:24:24.184Z,17.65
2016-06-04T00:25:24.218Z,17.65
2016-06-04T00:26:24.253Z,17.56
2016-06-04T00:27:24.302Z,17.52
2016-06-04T00:28:24.350Z,17.54
2016-06-04T00:29:24.370Z,17.46
2016-06-04T00:30:24.403Z,17.49
2016-06-04T00:31:24.453Z,17.44
2016-06-04T00:32:24.486Z,17.42
2016-06-04T00:33:24.536Z,17.6
2016-06-04T00:34:24.555Z,17.49
2016-06-04T00:35:24.620Z,17.63
2016-06-04T00:36:24.654Z,17.54
2016-06-04T00:37:24.688Z,17.54
2016-06-04T00:38:24.722Z,17.51
2016-06-04T00:39:24.741Z,17.56
2016-06-04T00:40:24.790Z,17.44
2016-06-04T00:41:24.683Z,17.41
2016-06-04T00:42:24.874Z,17.39
2016-06-04T00:43:24.907Z,17.42
2016-06-04T00:44:24.941Z,17.34
2016-06-04T00:45:24.975Z,17.44
2016-06-04T00:46:25.010Z,17.57
2016-06-04T00:47:25.059Z,17.56
2016-06-04T00:48:25.093Z,17.51
2016-06-04T00:49:25.126Z,17.42
2016-06-04T00:50:25.035Z,17.51
2016-06-04T00:51:25.210Z,17.51
2016-06-04T00:52:25.244Z,17.44
2016-06-04T00:53:25.294Z,17.48
2016-06-04T00:54:25.328Z,17.38
2016-06-04T00:55:25.361Z,17.42
2016-06-04T00:56:25.911Z,17.45
2016-06-04T00:57:25.429Z,17.39
2016-06-04T00:58:25.307Z,17.49
2016-06-04T00:59:25.525Z,17.39
2016-06-04T01:00:25.593Z,17.41
2016-06-04T01:01:25.675Z,17.42
2016-06-04T01:02:25.743Z,17.33
2016-06-04T01:03:25.810Z,17.39
2016-06-04T01:04:25.869Z,17.34
2016-06-04T01:05:25.916Z,17.44
2016-06-04T01:06:25.978Z,17.39
2016-06-04T01:07:26.007Z,17.46
2016-06-04T01:08:26.069Z,17.42
2016-06-04T01:09:26.111Z,17.42
2016-06-04T01:10:26.165Z,17.36
2016-06-04T01:11:26.203Z,17.41
2016-06-04T01:12:26.242Z,17.36
2016-06-04T01:13:26.280Z,17.31
2016-06-04T01:14:26.333Z,17.31
2016-06-04T01:15:26.368Z,17.29
2016-06-04T01:16:26.403Z,17.36
2016-06-04T01:17:26.282Z,17.44
2016-06-04T01:18:26.475Z,17.34
2016-06-04T01:19:26.540Z,17.42
2016-06-04T01:20:26.575Z,17.27
2016-06-04T01:21:26.610Z,17.39
2016-06-04T01:22:26.644Z,17.31
2016-06-04T01:23:26.678Z,17.29
2016-06-04T01:24:26.728Z,17.33
2016-06-04T01:25:26.762Z,17.3
2016-06-04T01:26:26.640Z,17.31
2016-06-04T01:27:26.862Z,17.38
2016-06-04T01:28:26.865Z,17.26
2016-06-04T01:29:26.899Z,17.24
2016-06-04T01:30:26.949Z,17.2
2016-06-04T01:31:26.984Z,17.12
2016-06-04T01:32:27.017Z,17.16
2016-06-04T01:33:27.051Z,17.14
2016-06-04T01:34:27.100Z,17.11
2016-06-04T01:35:27.135Z,17.15
2016-06-04T01:36:27.247Z,17.14
2016-06-04T01:37:27.046Z,17.02
2016-06-04T01:38:27.237Z,17.05
2016-06-04T01:39:27.270Z,17.04
2016-06-04T01:40:27.320Z,17.11
2016-06-04T01:41:27.432Z,17.06
2016-06-04T01:42:27.403Z,17.04
2016-06-04T01:43:27.422Z,17.06
2016-06-04T01:44:27.472Z,16.96
2016-06-04T01:45:27.505Z,16.99
2016-06-04T01:46:27.539Z,16.99
2016-06-04T01:47:27.589Z,17.05
2016-06-04T01:48:27.639Z,16.99
2016-06-04T01:49:27.641Z,16.94
2016-06-04T01:50:27.706Z,16.91
2016-06-04T01:51:27.740Z,16.9
2016-06-04T01:52:27.758Z,16.96
2016-06-04T01:53:27.808Z,16.96
2016-06-04T01:54:27.841Z,16.91
2016-06-04T01:55:27.891Z,16.9
2016-06-04T01:56:27.972Z,16.9
2016-06-04T01:57:27.960Z,16.78
2016-06-04T01:58:27.994Z,16.86
2016-06-04T01:59:28.027Z,16.79
2016-06-04T02:00:28.076Z,16.76
2016-06-04T02:01:28.096Z,16.75
2016-06-04T02:02:28.145Z,16.86
2016-06-04T02:03:28.178Z,16.84
2016-06-04T02:04:28.229Z,16.94
2016-06-04T02:05:28.262Z,16.89
2016-06-04T02:06:28.295Z,16.94
2016-06-04T02:07:28.331Z,17.02
2016-06-04T02:08:28.379Z,17.04
2016-06-04T02:09:28.428Z,16.97
2016-06-04T02:10:28.448Z,16.9
2016-06-04T02:11:29.123Z,16.97
2016-06-04T02:12:28.514Z,17.01
2016-06-04T02:13:28.550Z,17.01
2016-06-04T02:14:28.599Z,17.04
2016-06-04T02:15:28.633Z,16.9
2016-06-04T02:16:28.682Z,16.89
2016-06-04T02:17:28.700Z,16.9
2016-06-04T02:18:28.766Z,16.89
2016-06-04T02:19:28.784Z,16.89
2016-06-04T02:20:28.818Z,16.9
2016-06-04T02:21:28.868Z,16.81
2016-06-04T02:22:28.886Z,16.86
2016-06-04T02:23:28.920Z,16.76
2016-06-04T02:24:28.955Z,16.74
2016-06-04T02:25:29.004Z,16.78
2016-06-04T02:26:29.052Z,16.68
2016-06-04T02:27:29.102Z,16.68
2016-06-04T02:28:29.121Z,16.64
2016-06-04T02:29:29.154Z,16.61
2016-06-04T02:30:29.188Z,16.71
2016-06-04T02:31:29.223Z,16.72
2016-06-04T02:32:29.257Z,16.75
2016-06-04T02:33:29.290Z,16.71
2016-06-04T02:34:29.324Z,16.66
2016-06-04T02:35:29.374Z,16.69
2016-06-04T02:36:29.252Z,16.74
2016-06-04T02:37:29.442Z,16.71
2016-06-04T02:38:29.491Z,16.61
2016-06-04T02:39:29.526Z,16.61
2016-06-04T02:40:29.559Z,16.6
2016-06-04T02:41:29.937Z,16.61
2016-06-04T02:42:29.643Z,16.53
2016-06-04T02:43:29.661Z,16.49
2016-06-04T02:44:29.711Z,16.53
2016-06-04T02:45:29.745Z,16.66
2016-06-04T02:46:29.794Z,16.68
2016-06-04T02:47:29.813Z,16.64
2016-06-04T02:48:29.861Z,16.57
2016-06-04T02:49:29.911Z,16.6
2016-06-04T02:50:29.930Z,16.51
2016-06-04T02:51:29.980Z,16.58
2016-06-04T02:52:30.013Z,16.58
2016-06-04T02:53:30.063Z,16.58
2016-06-04T02:54:30.082Z,16.64
2016-06-04T02:55:30.116Z,16.64
2016-06-04T02:56:30.493Z,16.6
2016-06-04T02:57:30.183Z,16.53
2016-06-04T02:58:30.076Z,16.47
2016-06-04T02:59:30.266Z,16.53
2016-06-04T03:00:30.301Z,16.57
2016-06-04T03:01:30.351Z,16.57
2016-06-04T03:02:30.384Z,16.64
2016-06-04T03:03:30.418Z,16.6
2016-06-04T03:04:30.468Z,16.71
2016-06-04T03:05:30.487Z,16.68
2016-06-04T03:06:30.535Z,16.68
2016-06-04T03:07:30.570Z,16.61
2016-06-04T03:08:30.604Z,16.66
2016-06-04T03:09:30.637Z,16.58
2016-06-04T03:10:30.671Z,16.61
2016-06-04T03:11:30.720Z,16.57
2016-06-04T03:12:30.755Z,16.61
2016-06-04T03:13:30.789Z,16.56
2016-06-04T03:14:30.823Z,16.58
2016-06-04T03:15:30.872Z,16.68
2016-06-04T03:16:30.906Z,16.57
2016-06-04T03:17:30.940Z,16.56
2016-06-04T03:18:30.974Z,16.6
2016-06-04T03:19:31.025Z,16.54
2016-06-04T03:20:31.058Z,16.57
2016-06-04T03:21:31.138Z,16.53
2016-06-04T03:22:31.126Z,16.56
2016-06-04T03:23:31.160Z,16.51
2016-06-04T03:24:31.194Z,16.61
2016-06-04T03:25:31.227Z,16.54
2016-06-04T03:26:31.574Z,16.6
2016-06-04T03:27:31.311Z,16.69
2016-06-04T03:28:31.345Z,16.76
2016-06-04T03:29:31.379Z,16.65
2016-06-04T03:30:31.413Z,16.61
2016-06-04T03:31:31.463Z,16.65
2016-06-04T03:32:31.497Z,16.65
2016-06-04T03:33:31.529Z,16.6
2016-06-04T03:34:31.408Z,16.57
2016-06-04T03:35:31.598Z,16.6
2016-06-04T03:36:31.648Z,16.65
2016-06-04T03:37:31.681Z,16.6
2016-06-04T03:38:31.746Z,16.66
2016-06-04T03:39:31.749Z,16.74
2016-06-04T03:40:31.799Z,16.68
2016-06-04T03:41:31.833Z,16.76
2016-06-04T03:42:31.867Z,16.79
2016-06-04T03:43:31.900Z,16.84
2016-06-04T03:44:31.950Z,16.83
2016-06-04T03:45:31.969Z,16.78
2016-06-04T03:46:32.018Z,16.76
2016-06-04T03:47:32.053Z,16.9
2016-06-04T03:48:31.930Z,16.84
2016-06-04T03:49:32.120Z,16.83
2016-06-04T03:50:31.997Z,16.89
2016-06-04T03:51:32.188Z,16.87
2016-06-04T03:52:32.237Z,16.78
2016-06-04T03:53:32.272Z,16.81
2016-06-04T03:54:32.321Z,16.84
2016-06-04T03:55:32.355Z,16.9
2016-06-04T03:56:32.404Z,16.91
2016-06-04T03:57:32.422Z,16.94
2016-06-04T03:58:32.300Z,16.91
2016-06-04T03:59:32.491Z,16.96
2016-06-04T04:00:32.524Z,17.01
2016-06-04T04:01:32.558Z,17.06
2016-06-04T04:02:32.608Z,17.04
2016-06-04T04:03:32.643Z,17.08
2016-06-04T04:04:32.691Z,17.06
2016-06-04T04:05:32.726Z,17.04
2016-06-04T04:06:32.760Z,17.12
2016-06-04T04:07:32.793Z,17.09
2016-06-04T04:08:32.843Z,17.12
2016-06-04T04:09:32.892Z,17.19
2016-06-04T04:10:32.895Z,17.14
2016-06-04T04:11:33.132Z,17.12
2016-06-04T04:12:32.979Z,17.22
2016-06-04T04:13:33.028Z,17.29
2016-06-04T04:14:33.062Z,17.14
2016-06-04T04:15:33.096Z,17.26
2016-06-04T04:16:33.130Z,17.23
2016-06-04T04:17:33.164Z,17.34
2016-06-04T04:18:33.229Z,17.19
2016-06-04T04:19:33.231Z,17.24
2016-06-04T04:20:33.297Z,17.26
2016-06-04T04:21:33.159Z,17.24
2016-06-04T04:22:33.350Z,17.2
2016-06-04T04:23:33.383Z,17.26
2016-06-04T04:24:33.433Z,17.29
2016-06-04T04:25:33.483Z,17.31
2016-06-04T04:26:34.408Z,17.34
2016-06-04T04:27:33.550Z,17.38
2016-06-04T04:28:33.585Z,17.36
2016-06-04T04:29:33.619Z,17.52
2016-06-04T04:30:33.652Z,17.87
2016-06-04T04:31:33.701Z,18.22
2016-06-04T04:32:33.735Z,18.81
2016-06-04T04:33:33.785Z,19.33
2016-06-04T04:34:33.804Z,19.79
2016-06-04T04:35:33.837Z,20.29
2016-06-04T04:36:33.871Z,20.77
2016-06-04T04:37:33.921Z,21.17
2016-06-04T04:38:33.954Z,21.48
2016-06-04T04:39:34.021Z,21.48
2016-06-04T04:40:34.054Z,21.55
2016-06-04T04:41:34.041Z,21.54
2016-06-04T04:42:34.106Z,21.5
2016-06-04T04:43:34.140Z,21.8
2016-06-04T04:44:34.190Z,21.58
2016-06-04T04:45:34.224Z,21.72
2016-06-04T04:46:34.273Z,21.93
2016-06-04T04:47:34.307Z,22.02
2016-06-04T04:48:34.200Z,21.92
2016-06-04T04:49:34.375Z,22.08
2016-06-04T04:50:34.425Z,22.11
2016-06-04T04:51:34.459Z,22.23
2016-06-04T04:52:34.492Z,22.48
2016-06-04T04:53:34.542Z,22.39
2016-06-04T04:54:34.592Z,22.17
2016-06-04T04:55:35.017Z,22.25
2016-06-04T04:56:34.816Z,22.17
2016-06-04T04:57:34.693Z,22.6
2016-06-04T04:58:34.759Z,22.81
2016-06-04T04:59:34.777Z,22.93
2016-06-04T05:00:34.810Z,23.09
2016-06-04T05:01:34.860Z,23.13
2016-06-04T05:02:34.910Z,22.85
2016-06-04T05:03:34.944Z,22.93
2016-06-04T05:04:34.994Z,23.23
2016-06-04T05:05:35.043Z,23.06
2016-06-04T05:06:35.062Z,23.44
2016-06-04T05:07:35.111Z,23.78
2016-06-04T05:08:35.145Z,24.17
2016-06-04T05:09:35.179Z,24.68
2016-06-04T05:10:35.244Z,24.42
2016-06-04T05:11:36.168Z,24.33
2016-06-04T05:12:35.328Z,23.93
2016-06-04T05:13:35.362Z,24.11
2016-06-04T05:14:35.396Z,23.88
2016-06-04T05:15:35.429Z,23.84
2016-06-04T05:16:35.478Z,23.99
2016-06-04T05:17:35.373Z,24.26
2016-06-04T05:18:35.562Z,24.84
2016-06-04T05:19:35.612Z,25.03
2016-06-04T05:20:35.646Z,24.91
2016-06-04T05:21:35.681Z,25.08
2016-06-04T05:22:35.730Z,25.43
2016-06-04T05:23:35.778Z,25.6
2016-06-04T05:24:35.814Z,25.81
2016-06-04T05:25:35.847Z,25.83
2016-06-04T05:26:36.694Z,25.54
2016-06-04T05:27:35.946Z,24.89
2016-06-04T05:28:35.980Z,24.21
2016-06-04T05:29:36.030Z,23.77
2016-06-04T05:30:36.079Z,23.54
2016-06-04T05:31:35.972Z,23.48
2016-06-04T05:32:36.178Z,23.2
2016-06-04T05:33:36.197Z,23.13
2016-06-04T05:34:36.246Z,23.43
2016-06-04T05:35:36.296Z,23.66
2016-06-04T05:36:36.345Z,24.1
2016-06-04T05:37:36.380Z,24.14
2016-06-04T05:38:36.444Z,24.54
2016-06-04T05:39:36.463Z,25.04
2016-06-04T05:40:36.513Z,25.54
2016-06-04T05:41:36.906Z,25.69
2016-06-04T05:42:36.596Z,25.62
2016-06-04T05:43:36.645Z,25.84
2016-06-04T05:44:36.679Z,25.87
2016-06-04T05:45:36.729Z,25.83
2016-06-04T05:46:36.762Z,25.63
2016-06-04T05:47:36.859Z,25.17
2016-06-04T05:48:36.846Z,24.81
2016-06-04T05:49:36.896Z,24.55
2016-06-04T05:50:36.930Z,23.93
2016-06-04T05:51:36.979Z,23.5
2016-06-04T05:52:37.029Z,23.02
2016-06-04T05:53:37.063Z,22.8
2016-06-04T05:54:37.144Z,22.48
2016-06-04T05:55:37.162Z,22.26
2016-06-04T05:56:37.242Z,22.2
2016-06-04T05:57:37.261Z,21.93
2016-06-04T05:58:37.295Z,21.52
2016-06-04T05:59:37.345Z,21.14
2016-06-04T06:00:37.378Z,20.99
2016-06-04T06:01:37.428Z,20.78
2016-06-04T06:02:37.462Z,20.9
2016-06-04T06:03:37.497Z,20.72
2016-06-04T06:04:37.546Z,20.56
2016-06-04T06:05:37.596Z,20.55
2016-06-04T06:06:37.644Z,20.55
2016-06-04T06:07:37.679Z,20.37
2016-06-04T06:08:37.728Z,20.48
2016-06-04T06:09:37.762Z,20.52
2016-06-04T06:10:38.234Z,20.63
2016-06-04T06:11:37.862Z,20.69
2016-06-04T06:12:37.879Z,20.72
2016-06-04T06:13:37.929Z,20.69
2016-06-04T06:14:37.979Z,20.6
2016-06-04T06:15:37.998Z,20.62
2016-06-04T06:16:38.046Z,20.65
2016-06-04T06:17:38.096Z,20.51
2016-06-04T06:18:38.131Z,20.34
2016-06-04T06:19:38.179Z,20.52
2016-06-04T06:20:38.214Z,20.4
2016-06-04T06:21:38.092Z,20.47
2016-06-04T06:22:38.297Z,20.4
2016-06-04T06:23:38.347Z,20.62
2016-06-04T06:24:38.364Z,20.59
2016-06-04T06:25:38.430Z,20.41
2016-06-04T06:26:38.996Z,20.48
2016-06-04T06:27:38.514Z,20.55
2016-06-04T06:28:38.532Z,20.66
2016-06-04T06:29:38.597Z,20.7
2016-06-04T06:30:38.631Z,20.78
2016-06-04T06:31:38.665Z,20.78
2016-06-04T06:32:38.699Z,20.88
2016-06-04T06:33:38.749Z,20.95
2016-06-04T06:34:38.783Z,21.11
2016-06-04T06:35:38.832Z,21.12
2016-06-04T06:36:38.866Z,21.12
2016-06-04T06:37:38.900Z,21.21
2016-06-04T06:38:38.949Z,21.21
2016-06-04T06:39:38.999Z,21.18
2016-06-04T06:40:39.315Z,21.2
2016-06-04T06:41:39.035Z,21.35
2016-06-04T06:42:39.116Z,21.42
2016-06-04T06:43:39.166Z,21.42
2016-06-04T06:44:39.184Z,21.39
2016-06-04T06:45:39.234Z,21.37
2016-06-04T06:46:39.268Z,21.32
2016-06-04T06:47:39.302Z,21.48
2016-06-04T06:48:39.336Z,21.55
2016-06-04T06:49:39.401Z,21.54
2016-06-04T06:50:39.434Z,21.67
2016-06-04T06:51:39.470Z,21.5
2016-06-04T06:52:39.518Z,21.62
2016-06-04T06:53:39.553Z,21.57
2016-06-04T06:54:39.602Z,21.54
2016-06-04T06:55:39.917Z,21.46
2016-06-04T06:56:39.701Z,21.57
2016-06-04T06:57:39.719Z,21.52
2016-06-04T06:58:39.769Z,21.46
2016-06-04T06:59:39.787Z,21.55
2016-06-04T07:00:39.869Z,21.66
2016-06-04T07:01:39.903Z,21.61
2016-06-04T07:02:39.920Z,21.61
2016-06-04T07:03:39.798Z,21.52
2016-06-04T07:04:40.004Z,21.57
2016-06-04T07:05:40.038Z,21.57
2016-06-04T07:06:40.088Z,21.57
2016-06-04T07:07:40.122Z,21.55
2016-06-04T07:08:40.171Z,21.64
2016-06-04T07:09:40.235Z,21.66
2016-06-04T07:10:40.551Z,21.7
2016-06-04T07:11:40.632Z,21.6
2016-06-04T07:12:40.337Z,21.58
2016-06-04T07:13:40.356Z,21.69
2016-06-04T07:14:40.407Z,21.77
2016-06-04T07:15:40.455Z,21.79
2016-06-04T07:16:40.489Z,21.73
2016-06-04T07:17:40.539Z,21.89
2016-06-04T07:18:40.573Z,22.08
2016-06-04T07:19:40.623Z,22.13
2016-06-04T07:20:40.672Z,22.11
2016-06-04T07:21:40.690Z,22.17
2016-06-04T07:22:40.724Z,22.04
2016-06-04T07:23:40.774Z,22.02
2016-06-04T07:24:40.651Z,22.25
2016-06-04T07:25:41.185Z,22.18
2016-06-04T07:26:41.439Z,22.23
2016-06-04T07:27:40.941Z,22.2
2016-06-04T07:28:40.975Z,22.29
2016-06-04T07:29:41.025Z,22.38
2016-06-04T07:30:41.058Z,22.36
2016-06-04T07:31:40.952Z,22.53
2016-06-04T07:32:41.125Z,22.59
2016-06-04T07:33:41.191Z,22.53
2016-06-04T07:34:41.210Z,22.57
2016-06-04T07:35:41.275Z,22.5
2016-06-04T07:36:41.308Z,22.53
2016-06-04T07:37:41.358Z,22.6
2016-06-04T07:38:41.377Z,22.55
2016-06-04T07:39:41.427Z,22.55
2016-06-04T07:40:41.319Z,22.68
2016-06-04T07:41:42.713Z,22.84
2016-06-04T07:42:41.560Z,23.02
2016-06-04T07:43:41.438Z,23.15
2016-06-04T07:44:41.627Z,23.39
2016-06-04T07:45:41.692Z,23.86
2016-06-04T07:46:41.835Z,24.32
2016-06-04T07:47:41.776Z,25.13
2016-06-04T07:48:41.794Z,25.72
2016-06-04T07:49:41.843Z,25.98
2016-06-04T07:50:41.721Z,26.28
2016-06-04T07:51:41.927Z,26.6
2016-06-04T07:52:41.961Z,26.84
2016-06-04T07:53:42.011Z,27.77
2016-06-04T07:54:42.044Z,28.45
2016-06-04T07:55:42.063Z,28.49
2016-06-04T07:56:43.081Z,28.82
2016-06-04T07:57:42.178Z,29.12
2016-06-04T07:58:42.212Z,29.2
2016-06-04T07:59:42.261Z,28.56
2016-06-04T08:00:42.311Z,28.23
2016-06-04T08:01:42.345Z,27.82
2016-06-04T08:02:42.425Z,28.35
2016-06-04T08:03:42.288Z,28.01
2016-06-04T08:04:42.494Z,27.33
2016-06-04T08:05:42.527Z,27.73
2016-06-04T08:06:42.577Z,27.83
2016-06-04T08:07:42.627Z,28.1
2016-06-04T08:08:42.677Z,28.45
2016-06-04T08:09:42.710Z,28.35
2016-06-04T08:10:42.760Z,28.47
2016-06-04T08:11:42.809Z,28.79
2016-06-04T08:12:42.874Z,28.93
2016-06-04T08:13:42.830Z,28.76
2016-06-04T08:14:42.957Z,28.45
2016-06-04T08:15:42.992Z,28.56
2016-06-04T08:16:43.041Z,28.41
2016-06-04T08:17:43.107Z,28.11
2016-06-04T08:18:43.124Z,27.86
2016-06-04T08:19:43.190Z,27.82
2016-06-04T08:20:43.240Z,28.47
2016-06-04T08:21:43.289Z,29.41
2016-06-04T08:22:43.339Z,29.86
2016-06-04T08:23:43.372Z,30.37
2016-06-04T08:24:43.423Z,29.93
2016-06-04T08:25:43.362Z,30.08
2016-06-04T08:26:44.021Z,30.46
2016-06-04T08:27:43.415Z,30.37
2016-06-04T08:28:43.605Z,29.69
2016-06-04T08:29:43.670Z,29.91
2016-06-04T08:30:43.703Z,29.45
2016-06-04T08:31:43.784Z,29.2
2016-06-04T08:32:43.819Z,29.54
2016-06-04T08:33:43.868Z,30.32
2016-06-04T08:34:43.918Z,30.51
2016-06-04T08:35:43.967Z,30.57
2016-06-04T08:36:44.063Z,31.05
2016-06-04T08:37:44.129Z,31.51
2016-06-04T08:38:44.038Z,31.44
2016-06-04T08:39:44.165Z,31.03
2016-06-04T08:40:44.199Z,31.36
2016-06-04T08:41:44.249Z,31
2016-06-04T08:42:44.313Z,31.66
2016-06-04T08:43:44.363Z,31.77
2016-06-04T08:44:44.430Z,31.42
2016-06-04T08:45:44.463Z,31.02
2016-06-04T08:46:44.497Z,31.61
2016-06-04T08:47:44.562Z,32.3
2016-06-04T08:48:44.612Z,32.21
2016-06-04T08:49:44.662Z,32.46
2016-06-04T08:50:44.710Z,32.34
2016-06-04T08:51:44.760Z,32.56
2016-06-04T08:52:44.654Z,32.97
2016-06-04T08:53:44.859Z,33.43
2016-06-04T08:54:44.925Z,33.74
2016-06-04T08:55:44.974Z,34.21
2016-06-04T08:56:44.867Z,33.43
2016-06-04T08:57:45.073Z,33.27
2016-06-04T08:58:44.982Z,33.4
2016-06-04T08:59:45.172Z,31.89
2016-06-04T09:00:45.237Z,32.19
2016-06-04T09:01:45.272Z,32.97
2016-06-04T09:02:45.322Z,33.46
2016-06-04T09:03:45.386Z,33.5
2016-06-04T09:04:45.436Z,33.77
2016-06-04T09:05:45.486Z,33.73
2016-06-04T09:06:45.567Z,32.83
2016-06-04T09:07:45.585Z,31.87
2016-06-04T09:08:45.650Z,32.04
2016-06-04T09:09:45.700Z,32.48
2016-06-04T09:10:45.749Z,32.63
2016-06-04T09:11:45.799Z,33.24
2016-06-04T09:12:46.458Z,33.45
2016-06-04T09:13:45.913Z,33.76
2016-06-04T09:14:45.963Z,33.8
2016-06-04T09:15:46.012Z,34.2
2016-06-04T09:16:45.922Z,33.86
2016-06-04T09:17:46.127Z,34.29
2016-06-04T09:18:46.176Z,33.68
2016-06-04T09:19:46.227Z,33.15
2016-06-04T09:20:46.276Z,33
2016-06-04T09:21:46.341Z,32.78
2016-06-04T09:22:46.391Z,32.96
2016-06-04T09:23:46.456Z,32.67
2016-06-04T09:24:46.490Z,32.59
2016-06-04T09:25:46.555Z,33.32
2016-06-04T09:26:46.604Z,33.74
2016-06-04T09:27:46.670Z,33.8
2016-06-04T09:28:47.172Z,34.3
2016-06-04T09:29:46.770Z,35.11
2016-06-04T09:30:46.818Z,35.46
2016-06-04T09:31:46.867Z,34.06
2016-06-04T09:32:46.948Z,34.14
2016-06-04T09:33:46.984Z,34.25
2016-06-04T09:34:47.033Z,34.06
2016-06-04T09:35:47.082Z,32.23
2016-06-04T09:36:47.131Z,30.84
2016-06-04T09:37:47.197Z,30.61
2016-06-04T09:38:47.247Z,31.43
2016-06-04T09:39:47.139Z,32.21
2016-06-04T09:40:47.205Z,33.17
2016-06-04T09:41:47.411Z,33.94
2016-06-04T09:42:47.461Z,34.05
2016-06-04T09:43:48.088Z,33.47
2016-06-04T09:44:47.575Z,33.52
2016-06-04T09:45:47.624Z,33.52
2016-06-04T09:46:47.690Z,34.1
2016-06-04T09:47:47.739Z,34.8
2016-06-04T09:48:47.788Z,34.96
2016-06-04T09:49:47.869Z,33.52
2016-06-04T09:50:48.122Z,32.83
2016-06-04T09:51:47.954Z,33.52
2016-06-04T09:52:48.018Z,33.67
2016-06-04T09:53:48.067Z,34.5
2016-06-04T09:54:48.118Z,35.24
2016-06-04T09:55:48.167Z,35.86
2016-06-04T09:56:48.232Z,36.08
2016-06-04T09:57:48.281Z,35.76
2016-06-04T09:58:48.691Z,34.05
2016-06-04T09:59:48.412Z,34.1
2016-06-04T10:00:48.446Z,34.54
2016-06-04T10:01:48.495Z,33.09
2016-06-04T10:02:48.561Z,32.29
2016-06-04T10:03:48.611Z,31.87
2016-06-04T10:04:48.660Z,31.29
2016-06-04T10:05:48.742Z,30.37
2016-06-04T10:06:48.835Z,29.71
2016-06-04T10:07:48.912Z,29.93
2016-06-04T10:08:49.006Z,30.73
2016-06-04T10:09:49.067Z,30.81
2016-06-04T10:10:49.149Z,31.37
2016-06-04T10:11:49.208Z,31.43
2016-06-04T10:12:49.268Z,32.59
2016-06-04T10:13:49.297Z,33.12
2016-06-04T10:14:49.465Z,32.65
2016-06-04T10:15:49.459Z,30.72
2016-06-04T10:16:49.511Z,30
2016-06-04T10:17:49.579Z,29.6
2016-06-04T10:18:49.647Z,29.35
2016-06-04T10:19:49.529Z,29.07
2016-06-04T10:20:49.597Z,29.93
2016-06-04T10:21:49.851Z,31.22
2016-06-04T10:22:49.855Z,32.14
2016-06-04T10:23:49.921Z,32.89
2016-06-04T10:24:49.958Z,33.8
2016-06-04T10:25:50.008Z,34.32
2016-06-04T10:26:50.089Z,33.84
2016-06-04T10:27:51.015Z,33.12
2016-06-04T10:28:50.032Z,33.32
2016-06-04T10:29:50.239Z,32.38
2016-06-04T10:30:50.304Z,32.08
2016-06-04T10:31:50.338Z,32.86
2016-06-04T10:32:50.404Z,32.86
2016-06-04T10:33:50.452Z,33.02
2016-06-04T10:34:50.502Z,31
2016-06-04T10:35:50.552Z,29.76
2016-06-04T10:36:50.617Z,28.64
2016-06-04T10:37:50.667Z,28.05
2016-06-04T10:38:50.716Z,29.59
2016-06-04T10:39:50.782Z,30.69
2016-06-04T10:40:50.831Z,31.31
2016-06-04T10:41:50.881Z,32.04
2016-06-04T10:42:51.931Z,32.8
2016-06-04T10:43:51.012Z,32.22
2016-06-04T10:44:51.045Z,31.46
2016-06-04T10:45:51.079Z,30.35
2016-06-04T10:46:51.128Z,29.91
2016-06-04T10:47:51.195Z,29.82
2016-06-04T10:48:51.243Z,29.36
2016-06-04T10:49:51.324Z,28.33
2016-06-04T10:50:51.358Z,28.78
2016-06-04T10:51:51.251Z,29.36
2016-06-04T10:52:51.442Z,30.47
2016-06-04T10:53:51.506Z,30.72
2016-06-04T10:54:51.572Z,30.85
2016-06-04T10:55:51.636Z,31.7
2016-06-04T10:56:51.671Z,32.65
2016-06-04T10:57:51.736Z,31.07
2016-06-04T10:58:51.754Z,30.25
2016-06-04T10:59:51.820Z,30.7
2016-06-04T11:00:51.869Z,29.73
2016-06-04T11:01:51.919Z,29.68
2016-06-04T11:02:52.000Z,29.41
2016-06-04T11:03:52.019Z,29.19
2016-06-04T11:04:52.068Z,28.64
2016-06-04T11:05:52.133Z,28.7
2016-06-04T11:06:52.182Z,29.34
2016-06-04T11:07:52.232Z,29.14
2016-06-04T11:08:52.282Z,28.35
2016-06-04T11:09:52.331Z,28.22
2016-06-04T11:10:52.381Z,27.87
2016-06-04T11:11:52.429Z,27.89
2016-06-04T11:12:52.496Z,27.83
2016-06-04T11:13:53.435Z,27.11
2016-06-04T11:14:52.610Z,27.54
2016-06-04T11:15:52.645Z,28.38
2016-06-04T11:16:52.679Z,28.76
2016-06-04T11:17:52.728Z,29.63
2016-06-04T11:18:52.809Z,30.43
2016-06-04T11:19:52.827Z,31.43
2016-06-04T11:20:52.876Z,32.26
2016-06-04T11:21:52.942Z,32.38
2016-06-04T11:22:52.975Z,31.29
2016-06-04T11:23:53.056Z,30.66
2016-06-04T11:24:53.075Z,31.44
2016-06-04T11:25:53.140Z,32.41
2016-06-04T11:26:53.189Z,32.01
2016-06-04T11:27:53.270Z,30.75
2016-06-04T11:28:53.289Z,29.69
2016-06-04T11:29:53.339Z,29.13
2016-06-04T11:30:53.388Z,28.12
2016-06-04T11:31:53.438Z,28.72
2016-06-04T11:32:53.486Z,29.44
2016-06-04T11:33:53.536Z,29.19
2016-06-04T11:34:53.602Z,29.24
2016-06-04T11:35:53.667Z,29.19
2016-06-04T11:36:53.701Z,29.81
2016-06-04T11:37:53.765Z,29.24
2016-06-04T11:38:53.800Z,28.85
2016-06-04T11:39:53.849Z,29.36
2016-06-04T11:40:53.915Z,29.82
2016-06-04T11:41:54.292Z,30.03
2016-06-04T11:42:54.013Z,31.2
2016-06-04T11:43:54.062Z,32.26
2016-06-04T11:44:54.113Z,32.97
2016-06-04T11:45:54.178Z,31.99
2016-06-04T11:46:54.227Z,31.25
2016-06-04T11:47:54.277Z,30.53
2016-06-04T11:48:54.312Z,31.36
2016-06-04T11:49:54.376Z,31.17
2016-06-04T11:50:54.410Z,30.48
2016-06-04T11:51:54.492Z,30.59
2016-06-04T11:52:54.525Z,30.02
2016-06-04T11:53:54.575Z,29.6
2016-06-04T11:54:54.468Z,29.91
2016-06-04T11:55:55.330Z,29.36
2016-06-04T11:56:54.816Z,28.78
2016-06-04T11:57:54.804Z,28.74
2016-06-04T11:58:54.838Z,29.12
2016-06-04T11:59:54.888Z,29.34
2016-06-04T12:00:54.937Z,29.9
2016-06-04T12:01:55.002Z,30.57
2016-06-04T12:02:55.036Z,30.09
2016-06-04T12:03:55.085Z,29.32
2016-06-04T12:04:54.980Z,29.93
2016-06-04T12:05:55.200Z,29.88
2016-06-04T12:06:55.250Z,30.44
2016-06-04T12:07:55.299Z,31.31
2016-06-04T12:08:55.350Z,32.46
2016-06-04T12:09:55.399Z,33.01
2016-06-04T12:10:56.183Z,32.53
2016-06-04T12:11:56.248Z,32.3
2016-06-04T12:12:55.563Z,33.04
2016-06-04T12:13:55.613Z,33.52
2016-06-04T12:14:55.662Z,33.84
2016-06-04T12:15:55.712Z,31.9
2016-06-04T12:16:55.793Z,31.58
2016-06-04T12:17:55.811Z,30.69
2016-06-04T12:18:55.876Z,30.92
2016-06-04T12:19:55.926Z,32.16
2016-06-04T12:20:55.991Z,32.68
2016-06-04T12:21:56.040Z,33.31
2016-06-04T12:22:56.090Z,33.86
2016-06-04T12:23:56.139Z,34.24
2016-06-04T12:24:56.189Z,34.36
2016-06-04T12:25:56.270Z,34.32
2016-06-04T12:26:56.319Z,33.12
2016-06-04T12:27:56.354Z,33.01
2016-06-04T12:28:56.419Z,32.08
2016-06-04T12:29:56.469Z,31.15
2016-06-04T12:30:56.517Z,30.77
2016-06-04T12:31:56.583Z,30.53
2016-06-04T12:32:56.633Z,31.37
2016-06-04T12:33:56.682Z,32.29
2016-06-04T12:34:56.763Z,32.29
2016-06-04T12:35:56.828Z,33.12
2016-06-04T12:36:56.863Z,32.33
2016-06-04T12:37:56.911Z,31.55
2016-06-04T12:38:56.961Z,31.69
2016-06-04T12:39:57.027Z,31.42
2016-06-04T12:40:57.076Z,31.06
2016-06-04T12:41:57.126Z,31.61
2016-06-04T12:42:57.191Z,32.04
2016-06-04T12:43:57.256Z,32.27
2016-06-04T12:44:57.305Z,33.01
2016-06-04T12:45:57.354Z,33.19
2016-06-04T12:46:57.421Z,33.68
2016-06-04T12:47:57.298Z,33.15
2016-06-04T12:48:57.520Z,32.43
2016-06-04T12:49:57.584Z,31.65
2016-06-04T12:50:57.634Z,31.73
2016-06-04T12:51:57.699Z,31.73
2016-06-04T12:52:57.748Z,30.51
2016-06-04T12:53:57.798Z,29.81
2016-06-04T12:54:57.848Z,29.01
2016-06-04T12:55:57.898Z,28.05